Time;durP1;ratioP1;P1;durP2;ratioP2;P2;SDS_P1;SDS_P2;PMS_P1;PMS_P2;Temp;Humidity;BMP_temperature;BMP_pressure;BME280_temperature;BME280_humidity;BME280_pressure;Samples;Min_cycle;Max_cycle;Signal;HPM_P1;HPM_P2
2021/10/08 17:57:21;;;;;;;34.58;22.63;;;12.10;99.90;;;;;;5127871;27;20531;-84
2021/10/08 17:59:46;;;;;;;36.63;23.92;;;12.00;99.90;;;;;;5122369;27;20619;-85
2021/10/08 18:02:13;;;;;;;34.97;23.38;;;11.90;99.90;;;;;;5127559;27;20054;-84
2021/10/08 18:04:40;;;;;;;31.83;21.75;;;11.90;99.90;;;;;;5086729;28;20105;-84
2021/10/08 18:07:05;;;;;;;32.40;21.00;;;11.90;99.90;;;;;;5087130;27;20133;-83
2021/10/08 18:09:31;;;;;;;30.13;20.67;;;11.90;99.90;;;;;;5092337;28;20601;-84
2021/10/08 18:11:57;;;;;;;32.40;20.65;;;12.00;99.90;;;;;;5089474;28;20372;-84
2021/10/08 18:14:22;;;;;;;32.53;20.27;;;12.00;99.90;;;;;;5089468;28;20043;-84
2021/10/08 18:16:49;;;;;;;34.10;23.15;;;12.00;99.90;;;;;;5106550;28;20498;-84
2021/10/08 18:19:15;;;;;;;41.60;26.60;;;12.00;99.90;;;;;;5107323;28;20031;-84
2021/10/08 18:21:40;;;;;;;37.90;24.75;;;12.00;99.90;;;;;;5107238;28;20058;-84
2021/10/08 18:24:08;;;;;;;42.55;27.65;;;12.00;99.90;;;;;;5124102;27;20064;-84
2021/10/08 18:27:08;;;;;;;41.60;29.77;;;12.00;99.90;;;;;;5159352;27;20097;-84
2021/10/08 18:29:34;;;;;;;31.88;22.10;;;12.00;99.90;;;;;;5142427;27;20042;-85
2021/10/08 18:32:00;;;;;;;25.23;19.77;;;12.00;99.90;;;;;;5081806;28;20397;-84
2021/10/08 18:34:26;;;;;;;29.35;20.40;;;12.00;99.90;;;;;;5132380;27;20047;-83
2021/10/08 18:36:51;;;;;;;26.42;19.58;;;12.00;99.90;;;;;;5117169;28;20040;-84
2021/10/08 18:39:17;;;;;;;27.10;20.98;;;12.00;99.90;;;;;;5102716;28;20046;-84
2021/10/08 18:41:44;;;;;;;29.20;22.05;;;12.00;99.90;;;;;;5116461;27;20050;-84
2021/10/08 18:44:09;;;;;;;31.98;22.98;;;12.10;99.90;;;;;;5085086;28;20051;-84
2021/10/08 18:46:36;;;;;;;29.67;22.55;;;12.00;99.90;;;;;;5086609;28;20398;-84
2021/10/08 18:49:05;;;;;;;30.13;23.88;;;12.10;99.90;;;;;;5088867;27;20048;-84
2021/10/08 18:51:31;;;;;;;33.45;25.17;;;12.10;99.90;;;;;;5102237;27;20067;-84
2021/10/08 18:53:58;;;;;;;31.20;25.70;;;12.10;99.90;;;;;;5111381;27;20569;-84
2021/10/08 18:56:25;;;;;;;34.10;25.45;;;12.10;99.90;;;;;;5135142;27;20128;-84
2021/10/08 18:58:50;;;;;;;37.65;24.60;;;12.10;99.90;;;;;;5118946;27;20035;-84
2021/10/08 19:01:17;;;;;;;33.63;24.60;;;12.20;99.90;;;;;;5085929;28;20039;-84
2021/10/08 19:03:46;;;;;;;33.65;25.58;;;12.20;99.90;;;;;;5100283;28;20505;-85
2021/10/08 19:06:19;;;;;;;35.55;27.15;;;12.20;99.90;;;;;;5098787;28;21124;-84
2021/10/08 19:08:47;;;;;;;33.15;25.83;;;12.20;99.90;;;;;;5088049;28;20039;-84
2021/10/08 19:11:17;;;;;;;35.33;27.45;;;12.20;99.90;;;;;;5077911;28;20478;-85
2021/10/08 19:21:03;;;;;;;35.00;26.65;;;12.10;99.90;;;;;;5077952;28;20406;-84
2021/10/08 19:23:30;;;;;;;37.72;28.27;;;12.10;99.90;;;;;;5112470;27;20046;-84
2021/10/08 19:25:56;;;;;;;36.33;28.27;;;12.10;99.90;;;;;;5107486;27;20050;-85
2021/10/08 19:28:22;;;;;;;34.60;27.33;;;12.20;99.90;;;;;;5083294;28;20035;-84
2021/10/08 19:30:48;;;;;;;35.83;28.55;;;12.10;99.90;;;;;;5090865;28;20097;-84
2021/10/08 19:33:15;;;;;;;38.10;27.33;;;12.10;99.90;;;;;;5092304;27;20159;-84
2021/10/08 19:35:41;;;;;;;38.78;29.38;;;12.10;99.90;;;;;;5087729;28;20074;-84
2021/10/08 19:38:07;;;;;;;36.90;28.83;;;12.10;99.90;;;;;;5111742;27;20032;-83
2021/10/08 19:40:32;;;;;;;38.10;28.77;;;12.10;99.90;;;;;;5094504;28;20032;-84
2021/10/08 19:43:11;;;;;;;39.25;29.45;;;12.10;99.90;;;;;;5106923;27;20040;-83
2021/10/08 19:45:48;;;;;;;39.63;29.40;;;12.10;99.90;;;;;;5074466;28;20043;-84
2021/10/08 19:48:14;;;;;;;40.17;30.27;;;12.10;99.90;;;;;;5091260;28;20050;-84
2021/10/08 19:50:41;;;;;;;36.38;29.35;;;12.10;99.90;;;;;;5056284;28;20122;-83
2021/10/08 19:53:07;;;;;;;41.30;30.48;;;12.10;99.90;;;;;;5090393;28;20486;-84
2021/10/08 19:55:32;;;;;;;41.30;30.02;;;12.10;99.90;;;;;;5099939;28;20060;-84
2021/10/08 19:57:58;;;;;;;42.65;31.20;;;12.10;99.90;;;;;;5053625;28;21010;-83
2021/10/08 20:00:24;;;;;;;46.03;32.85;;;12.10;99.90;;;;;;5108979;27;20040;-84
2021/10/08 20:02:52;;;;;;;38.83;30.42;;;12.10;99.90;;;;;;5071019;28;20069;-84
2021/10/08 20:15:58;;;;;;;45.40;32.88;;;12.00;99.90;;;;;;5102160;28;20452;-83
2021/10/08 20:18:24;;;;;;;42.08;31.00;;;12.10;99.90;;;;;;5088003;28;20111;-83
2021/10/08 20:20:51;;;;;;;40.53;30.80;;;12.00;99.90;;;;;;5101977;28;20039;-84
2021/10/08 20:23:16;;;;;;;39.22;30.25;;;12.00;99.90;;;;;;5071627;28;20519;-84
2021/10/08 20:25:43;;;;;;;40.08;29.83;;;12.00;99.90;;;;;;5072456;28;20067;-84
2021/10/08 20:28:14;;;;;;;41.08;30.30;;;12.00;99.90;;;;;;5087216;28;20054;-83
2021/10/08 20:30:40;;;;;;;38.50;30.50;;;11.90;99.90;;;;;;5103071;28;20715;-83
2021/10/08 20:33:06;;;;;;;38.72;29.70;;;11.90;99.90;;;;;;5070584;28;20040;-83
2021/10/08 20:35:32;;;;;;;36.22;28.17;;;11.90;99.90;;;;;;5098662;28;20098;-83
2021/10/08 20:37:58;;;;;;;38.97;30.35;;;11.90;99.90;;;;;;5088936;28;20858;-84
2021/10/08 20:40:24;;;;;;;39.60;29.88;;;11.90;99.90;;;;;;5080689;28;20050;-84
2021/10/08 20:42:49;;;;;;;41.53;28.77;;;11.90;99.90;;;;;;5084012;28;20042;-84
2021/10/08 20:45:15;;;;;;;38.20;28.98;;;11.90;99.90;;;;;;5082727;28;20509;-84
2021/10/08 20:47:41;;;;;;;38.53;30.25;;;11.90;99.90;;;;;;5084610;28;20126;-84
2021/10/08 20:50:07;;;;;;;37.60;29.27;;;11.90;99.90;;;;;;5081361;28;20040;-84
2021/10/08 20:52:33;;;;;;;42.05;29.40;;;11.90;99.90;;;;;;5099442;28;20082;-84
2021/10/08 20:54:59;;;;;;;39.47;28.90;;;11.90;99.90;;;;;;5066901;28;20065;-84
2021/10/08 20:57:25;;;;;;;41.05;30.20;;;11.80;99.90;;;;;;5063436;28;20056;-84
2021/10/08 20:59:52;;;;;;;37.88;29.70;;;11.80;99.90;;;;;;5083912;28;20482;-84
2021/10/08 21:02:19;;;;;;;43.00;30.20;;;11.80;99.90;;;;;;5106714;27;20057;-84
2021/10/08 21:04:45;;;;;;;47.30;31.65;;;11.80;99.90;;;;;;5066354;28;20127;-84
2021/10/08 21:07:10;;;;;;;51.25;32.35;;;11.80;99.90;;;;;;5112033;27;20035;-84
2021/10/08 21:09:36;;;;;;;49.97;32.80;;;11.80;99.90;;;;;;5108858;27;20032;-84
2021/10/08 21:12:02;;;;;;;46.72;30.02;;;11.80;99.90;;;;;;5080005;28;20062;-83
2021/10/08 21:14:28;;;;;;;45.30;32.28;;;11.80;99.90;;;;;;5083432;28;20146;-84
2021/10/08 21:16:53;;;;;;;37.60;29.23;;;11.80;99.90;;;;;;5083388;28;20036;-84
2021/10/08 21:19:19;;;;;;;34.03;28.45;;;11.70;99.90;;;;;;5115720;27;20050;-84
2021/10/08 21:21:45;;;;;;;39.15;30.45;;;11.70;99.90;;;;;;5079505;28;21696;-84
2021/10/08 21:24:11;;;;;;;39.90;29.95;;;11.70;99.90;;;;;;5088505;28;20066;-84
2021/10/08 21:26:37;;;;;;;36.47;29.08;;;11.70;99.90;;;;;;5049909;28;20658;-84
2021/10/08 21:29:09;;;;;;;40.10;30.65;;;11.70;99.90;;;;;;5083285;28;20100;-84
2021/10/08 21:31:36;;;;;;;38.53;30.10;;;11.70;99.90;;;;;;5093822;28;20038;-84
2021/10/08 21:34:04;;;;;;;37.50;27.42;;;11.70;99.90;;;;;;5084134;28;20483;-84
2021/10/08 21:36:32;;;;;;;36.88;28.33;;;11.70;99.90;;;;;;5080433;28;20490;-84
2021/10/08 21:39:06;;;;;;;38.33;28.25;;;11.70;99.90;;;;;;5096545;28;20784;-84
2021/10/08 21:44:08;;;;;;;34.53;27.08;;;11.70;99.90;;;;;;5109908;27;20577;-84
2021/10/08 21:46:35;;;;;;;33.85;28.35;;;11.70;99.90;;;;;;5099342;28;20044;-84
2021/10/08 21:49:00;;;;;;;38.38;28.65;;;11.70;99.90;;;;;;5098045;28;20036;-84
2021/10/08 21:51:26;;;;;;;36.67;28.63;;;11.70;99.90;;;;;;5084450;28;20047;-84
2021/10/08 21:53:52;;;;;;;36.95;27.75;;;11.70;99.90;;;;;;5066733;28;20039;-83
2021/10/08 21:56:18;;;;;;;34.35;27.23;;;11.70;99.90;;;;;;5067702;28;20070;-84
2021/10/08 21:58:45;;;;;;;35.38;27.40;;;11.70;99.90;;;;;;5082130;28;20554;-84
2021/10/08 22:01:23;;;;;;;35.42;26.92;;;11.70;99.90;;;;;;5084304;28;20499;-84
2021/10/08 22:03:51;;;;;;;34.83;26.98;;;11.70;99.90;;;;;;5114385;28;20074;-84
2021/10/08 22:06:17;;;;;;;35.22;27.00;;;11.70;99.90;;;;;;5083897;28;20067;-84
2021/10/08 22:08:43;;;;;;;36.65;27.08;;;11.70;99.90;;;;;;5064012;28;20031;-84
2021/10/08 22:11:09;;;;;;;36.13;27.27;;;11.70;99.90;;;;;;5066268;28;20549;-84
2021/10/08 22:13:38;;;;;;;36.20;26.38;;;11.70;99.90;;;;;;5080637;28;20039;-84
2021/10/08 22:16:09;;;;;;;37.50;27.27;;;11.70;99.90;;;;;;5069926;28;20036;-84
2021/10/08 22:18:47;;;;;;;31.60;25.20;;;11.60;99.90;;;;;;5086798;28;20032;-84
2021/10/08 22:21:17;;;;;;;35.17;26.15;;;11.60;99.90;;;;;;5090104;28;20047;-84
2021/10/08 22:23:51;;;;;;;33.53;26.00;;;11.60;99.90;;;;;;5111937;28;20058;-83
2021/10/08 22:26:35;;;;;;;34.20;25.70;;;11.50;99.90;;;;;;5088161;28;20040;-84
2021/10/08 22:34:16;;;;;;;31.50;24.88;;;11.50;99.90;;;;;;5105830;28;20494;-84
2021/10/08 22:36:41;;;;;;;32.80;25.58;;;11.40;99.90;;;;;;5069693;28;20073;-84
2021/10/08 22:39:07;;;;;;;33.00;26.38;;;11.40;99.90;;;;;;5072158;28;20070;-84
2021/10/08 22:41:33;;;;;;;36.03;25.38;;;11.40;99.90;;;;;;5072298;28;20467;-84
2021/10/08 22:43:58;;;;;;;34.78;25.38;;;11.40;99.90;;;;;;5109730;28;20042;-84
2021/10/08 22:46:24;;;;;;;32.35;23.27;;;11.40;99.90;;;;;;5110004;28;20534;-84
2021/10/08 22:48:51;;;;;;;32.75;25.92;;;11.40;99.90;;;;;;5092514;28;20047;-84
2021/10/08 22:51:18;;;;;;;33.08;24.50;;;11.40;99.90;;;;;;5076231;28;20119;-84
2021/10/08 22:53:44;;;;;;;33.35;25.60;;;11.30;99.90;;;;;;5092348;28;20595;-84
2021/10/08 22:56:11;;;;;;;34.17;26.13;;;11.30;99.90;;;;;;5092624;28;20075;-84
2021/10/08 22:58:36;;;;;;;33.13;25.95;;;11.30;99.90;;;;;;5092305;28;20051;-84
2021/10/08 23:01:02;;;;;;;33.63;24.95;;;11.30;99.90;;;;;;5110166;27;20043;-84
2021/10/08 23:03:28;;;;;;;40.15;26.75;;;11.30;99.90;;;;;;5075157;28;20035;-84
2021/10/08 23:06:04;;;;;;;35.15;25.35;;;11.30;99.90;;;;;;5091946;28;20031;-84
2021/10/08 23:08:30;;;;;;;29.85;23.67;;;11.30;99.90;;;;;;5061904;28;20047;-84
2021/10/08 23:10:59;;;;;;;30.27;24.42;;;11.30;99.90;;;;;;5092548;28;20036;-84
2021/10/08 23:13:48;;;;;;;38.75;25.25;;;11.30;99.90;;;;;;5073837;28;20028;-84
2021/10/08 23:16:14;;;;;;;33.58;25.60;;;11.30;99.90;;;;;;5094792;28;20410;-84
2021/10/08 23:18:40;;;;;;;35.33;25.63;;;11.30;99.90;;;;;;5075184;28;20031;-84
2021/10/08 23:21:05;;;;;;;33.83;23.98;;;11.40;99.90;;;;;;5073902;28;20036;-84
2021/10/08 23:23:31;;;;;;;32.83;25.10;;;11.40;99.90;;;;;;5091772;28;20042;-84
2021/10/08 23:25:57;;;;;;;34.35;26.30;;;11.30;99.90;;;;;;5075040;28;20123;-84
2021/10/08 23:28:22;;;;;;;34.50;25.50;;;11.30;99.90;;;;;;5092651;28;20130;-84
2021/10/08 23:30:48;;;;;;;33.97;25.25;;;11.30;99.90;;;;;;5057830;28;20047;-84
2021/10/08 23:33:14;;;;;;;33.38;26.10;;;11.30;99.90;;;;;;5109326;28;20051;-84
2021/10/08 23:35:40;;;;;;;33.30;25.20;;;11.30;99.90;;;;;;5056589;28;20152;-84
2021/10/08 23:38:06;;;;;;;36.78;26.55;;;11.30;99.90;;;;;;5125370;27;20616;-84
2021/10/08 23:40:31;;;;;;;36.50;26.95;;;11.30;99.90;;;;;;5091682;28;20130;-84
2021/10/08 23:42:57;;;;;;;33.67;27.00;;;11.30;99.90;;;;;;5086838;28;20040;-84
2021/10/08 23:45:23;;;;;;;37.15;27.67;;;11.30;99.90;;;;;;5104565;28;20506;-84
2021/10/08 23:47:49;;;;;;;32.83;26.13;;;11.30;99.90;;;;;;5056834;28;20451;-84
2021/10/08 23:50:14;;;;;;;36.42;26.92;;;11.30;99.90;;;;;;5089785;28;20051;-84
2021/10/08 23:52:40;;;;;;;35.97;26.10;;;11.30;99.90;;;;;;5073869;28;20039;-84
2021/10/08 23:55:06;;;;;;;35.70;27.45;;;11.20;99.90;;;;;;5091308;28;20043;-84
2021/10/08 23:57:32;;;;;;;39.53;27.45;;;11.30;99.90;;;;;;5074444;28;20522;-84
2021/10/08 23:59:58;;;;;;;33.22;25.88;;;11.30;99.90;;;;;;5117456;27;20055;-84
